Time,TemperatureF,DewpointF,PressureIn,WindDirection,WindDirectionDegrees,WindSpeedMPH,WindSpeedGustMPH,Humidity,HourlyPrecipIn,Conditions,Clouds,dailyrainin,SoftwareType,DateUTC
2013-02-01 00:02:00,48.9,44.9,30.19,NNE,23,0.0,0.0,86,0.00,,,0.00,WeatherCatV1.13B119,2013-02-01 08:02:00,
2013-02-01 00:07:00,48.8,44.8,30.19,NE,34,0.0,0.0,86,0.00,,,0.00,WeatherCatV1.13B119,2013-02-01 08:07:00,
2013-02-01 00:12:00,48.8,44.8,30.19,SW,225,0.0,1.0,86,0.00,,,0.00,WeatherCatV1.13B119,2013-02-01 08:12:00,
2013-02-01 00:17:00,48.7,44.7,30.19,SW,224,0.0,0.0,86,0.00,,,0.00,WeatherCatV1.13B119,2013-02-01 08:17:00,
2013-02-01 00:22:00,48.7,44.7,30.19,NE,47,0.0,0.0,86,0.00,,,0.00,WeatherCatV1.13B119,2013-02-01 08:22:00,
2013-02-01 00:27:00,48.8,44.8,30.19,NE,41,0.0,0.0,86,0.00,,,0.00,WeatherCatV1.13B119,2013-02-01 08:27:00,
2013-02-01 00:32:00,48.8,44.8,30.19,WNW,297,0.0,0.0,86,0.00,,,0.00,WeatherCatV1.13B119,2013-02-01 08:32:00,
2013-02-01 00:37:00,48.8,44.8,30.19,NE,44,0.0,0.0,86,0.00,,,0.00,WeatherCatV1.13B119,2013-02-01 08:37:00,
2013-02-01 00:42:00,48.7,44.7,30.19,WSW,252,0.0,0.0,86,0.00,,,0.00,WeatherCatV1.13B119,2013-02-01 08:42:00,
2013-02-01 00:47:00,48.7,44.7,30.19,NE,42,0.0,0.0,86,0.00,,,0.00,WeatherCatV1.13B119,2013-02-01 08:47:00,
2013-02-01 00:52:00,48.7,44.7,30.19,NE,41,0.0,0.0,86,0.00,,,0.00,WeatherCatV1.13B119,2013-02-01 08:52:00,
2013-02-01 00:57:00,48.6,44.6,30.19,NE,53,0.0,1.0,86,0.00,,,0.00,WeatherCatV1.13B119,2013-02-01 08:57:00,
2013-02-01 01:02:00,48.5,44.5,30.19,WSW,240,0.0,0.0,86,0.00,,,0.00,WeatherCatV1.13B119,2013-02-01 09:02:00,
2013-02-01 01:07:00,48.5,44.5,30.19,WSW,240,0.0,0.0,86,0.00,,,0.00,WeatherCatV1.13B119,2013-02-01 09:07:00,
2013-02-01 01:12:00,48.4,44.4,30.19,NE,41,0.0,0.0,86,0.00,,,0.00,WeatherCatV1.13B119,2013-02-01 09:12:00,
2013-02-01 01:17:00,48.3,44.3,30.19,SSW,197,0.0,0.0,86,0.00,,,0.00,WeatherCatV1.13B119,2013-02-01 09:17:00,
2013-02-01 01:22:00,48.3,44.3,30.19,NE,44,0.0,0.0,86,0.00,,,0.00,WeatherCatV1.13B119,2013-02-01 09:22:00,
2013-02-01 01:27:00,48.2,44.2,30.18,WNW,301,0.0,0.0,86,0.00,,,0.00,WeatherCatV1.13B119,2013-02-01 09:27:00,
2013-02-01 01:32:00,48.2,44.2,30.18,NW,316,0.0,0.0,86,0.00,,,0.00,WeatherCatV1.13B119,2013-02-01 09:32:00,
2013-02-01 01:37:00,48.1,44.1,30.18,NE,47,0.0,0.0,86,0.00,,,0.00,WeatherCatV1.13B119,2013-02-01 09:37:00,
2013-02-01 01:42:00,48.0,44.3,30.18,NE,47,0.0,0.0,87,0.00,,,0.00,WeatherCatV1.13B119,2013-02-01 09:42:00,
2013-02-01 01:47:00,47.9,44.2,30.18,NE,40,0.0,0.0,87,0.00,,,0.00,WeatherCatV1.13B119,2013-02-01 09:47:00,
2013-02-01 01:52:00,47.9,44.2,30.18,SE,136,0.0,0.0,87,0.00,,,0.00,WeatherCatV1.13B119,2013-02-01 09:52:00,
2013-02-01 01:57:00,47.9,44.2,30.19,NNE,23,0.0,0.0,87,0.00,,,0.00,WeatherCatV1.13B119,2013-02-01 09:57:00,
2013-02-01 02:02:00,48.0,44.0,30.18,North,353,0.0,0.0,86,0.00,,,0.00,WeatherCatV1.13B119,2013-02-01 10:02:00,
2013-02-01 02:07:00,48.0,44.0,30.18,North,356,0.0,0.0,86,0.00,,,0.00,WeatherCatV1.13B119,2013-02-01 10:07:00,
2013-02-01 02:12:00,47.9,43.9,30.18,North,356,0.0,0.0,86,0.00,,,0.00,WeatherCatV1.13B119,2013-02-01 10:12:00,
2013-02-01 02:17:00,48.0,44.0,30.19,SSE,155,0.0,0.0,86,0.00,,,0.00,WeatherCatV1.13B119,2013-02-01 10:17:00,
2013-02-01 02:22:00,48.0,44.0,30.19,SSW,194,0.0,0.0,86,0.00,,,0.00,WeatherCatV1.13B119,2013-02-01 10:22:00,
2013-02-01 02:27:00,47.9,43.9,30.19,SSW,194,0.0,0.0,86,0.00,,,0.00,WeatherCatV1.13B119,2013-02-01 10:27:00,
2013-02-01 02:32:00,47.8,43.8,30.19,SSW,194,0.0,0.0,86,0.00,,,0.00,WeatherCatV1.13B119,2013-02-01 10:32:00,
2013-02-01 02:37:00,47.7,43.7,30.19,South,187,0.0,0.0,86,0.00,,,0.00,WeatherCatV1.13B119,2013-02-01 10:37:00,
2013-02-01 02:42:00,47.6,43.6,30.19,South,187,0.0,0.0,86,0.00,,,0.00,WeatherCatV1.13B119,2013-02-01 10:42:00,
2013-02-01 02:46:00,47.6,43.6,30.19,South,188,0.0,0.0,86,0.00,,,0.00,WeatherCatV1.13B119,2013-02-01 10:46:00,
2013-02-01 02:51:00,47.5,43.5,30.19,South,186,0.0,0.0,86,0.00,,,0.00,WeatherCatV1.13B119,2013-02-01 10:51:00,
2013-02-01 02:56:00,47.4,43.4,30.19,South,188,0.0,0.0,86,0.00,,,0.00,WeatherCatV1.13B119,2013-02-01 10:56:00,
2013-02-01 03:01:00,47.3,43.3,30.19,SW,219,0.0,0.0,86,0.00,,,0.00,WeatherCatV1.13B119,2013-02-01 11:01:00,
2013-02-01 03:07:00,47.4,43.4,30.19,WSW,240,0.0,0.0,86,0.00,,,0.00,WeatherCatV1.13B119,2013-02-01 11:07:00,
2013-02-01 03:12:00,47.6,43.6,30.19,NE,44,0.0,0.0,86,0.00,,,0.00,WeatherCatV1.13B119,2013-02-01 11:12:00,
2013-02-01 03:17:00,47.6,43.6,30.18,NW,310,0.0,0.0,86,0.00,,,0.00,WeatherCatV1.13B119,2013-02-01 11:17:00,
2013-02-01 03:22:00,47.6,43.6,30.19,NW,311,0.0,0.0,86,0.00,,,0.00,WeatherCatV1.13B119,2013-02-01 11:22:00,
2013-02-01 03:27:00,47.5,43.5,30.19,NE,47,0.0,0.0,86,0.00,,,0.00,WeatherCatV1.13B119,2013-02-01 11:27:00,
2013-02-01 03:32:00,47.5,43.5,30.18,NE,47,0.0,0.0,86,0.00,,,0.00,WeatherCatV1.13B119,2013-02-01 11:32:00,
2013-02-01 03:37:00,47.4,43.4,30.19,NE,47,0.0,0.0,86,0.00,,,0.00,WeatherCatV1.13B119,2013-02-01 11:37:00,
2013-02-01 03:42:00,47.2,43.2,30.19,NE,46,0.0,0.0,86,0.00,,,0.00,WeatherCatV1.13B119,2013-02-01 11:42:00,
2013-02-01 03:47:00,47.2,43.2,30.18,NE,47,0.0,0.0,86,0.00,,,0.00,WeatherCatV1.13B119,2013-02-01 11:47:00,
2013-02-01 03:52:00,47.1,43.1,30.18,NE,50,0.0,0.0,86,0.00,,,0.00,WeatherCatV1.13B119,2013-02-01 11:52:00,
2013-02-01 03:57:00,47.1,43.1,30.19,WNW,300,0.0,0.0,86,0.00,,,0.00,WeatherCatV1.13B119,2013-02-01 11:57:00,
2013-02-01 04:02:00,47.2,43.2,30.19,NE,39,0.0,0.0,86,0.00,,,0.00,WeatherCatV1.13B119,2013-02-01 12:02:00,
2013-02-01 04:07:00,47.2,43.2,30.19,North,10,0.0,1.0,86,0.00,,,0.00,WeatherCatV1.13B119,2013-02-01 12:07:00,
2013-02-01 04:12:00,47.3,43.3,30.19,North,10,0.0,1.0,86,0.00,,,0.00,WeatherCatV1.13B119,2013-02-01 12:12:00,
2013-02-01 04:17:00,47.5,43.5,30.19,NE,39,0.0,1.0,86,0.00,,,0.00,WeatherCatV1.13B119,2013-02-01 12:17:00,
2013-02-01 04:22:00,47.5,43.5,30.19,NE,39,0.0,0.0,86,0.00,,,0.00,WeatherCatV1.13B119,2013-02-01 12:22:00,
2013-02-01 04:27:00,47.5,43.2,30.19,NE,39,0.0,0.0,85,0.00,,,0.00,WeatherCatV1.13B119,2013-02-01 12:27:00,
2013-02-01 04:32:00,47.5,43.2,30.19,NE,39,0.0,0.0,85,0.00,,,0.00,WeatherCatV1.13B119,2013-02-01 12:32:00,
2013-02-01 04:37:00,47.5,43.2,30.19,NE,39,0.0,0.0,85,0.00,,,0.00,WeatherCatV1.13B119,2013-02-01 12:37:00,
2013-02-01 04:42:00,47.5,43.2,30.19,NE,39,0.0,0.0,85,0.00,,,0.00,WeatherCatV1.13B119,2013-02-01 12:42:00,
2013-02-01 04:47:00,47.4,43.4,30.19,WSW,255,0.0,0.0,86,0.00,,,0.00,WeatherCatV1.13B119,2013-02-01 12:47:00,
2013-02-01 04:52:00,47.2,43.2,30.19,WSW,253,0.0,0.0,86,0.00,,,0.00,WeatherCatV1.13B119,2013-02-01 12:52:00,
2013-02-01 04:57:00,47.1,43.1,30.19,WSW,252,0.0,0.0,86,0.00,,,0.00,WeatherCatV1.13B119,2013-02-01 12:57:00,
2013-02-01 05:02:00,47.0,43.0,30.19,WNW,283,0.0,0.0,86,0.00,,,0.00,WeatherCatV1.13B119,2013-02-01 13:02:00,
2013-02-01 05:07:00,46.9,42.9,30.18,West,278,0.0,0.0,86,0.00,,,0.00,WeatherCatV1.13B119,2013-02-01 13:07:00,
2013-02-01 05:12:00,46.9,43.2,30.19,West,281,0.0,0.0,87,0.00,,,0.00,WeatherCatV1.13B119,2013-02-01 13:12:00,
2013-02-01 05:17:00,46.9,43.2,30.18,West,281,0.0,0.0,87,0.00,,,0.00,WeatherCatV1.13B119,2013-02-01 13:17:00,
2013-02-01 05:22:00,46.9,43.2,30.18,SW,218,0.0,0.0,87,0.00,,,0.00,WeatherCatV1.13B119,2013-02-01 13:22:00,
2013-02-01 05:27:00,46.9,43.2,30.18,SSW,210,0.0,0.0,87,0.00,,,0.00,WeatherCatV1.13B119,2013-02-01 13:27:00,
2013-02-01 05:32:00,47.0,43.3,30.18,SSW,210,0.0,0.0,87,0.00,,,0.00,WeatherCatV1.13B119,2013-02-01 13:32:00,
2013-02-01 05:37:00,46.9,43.2,30.18,SSW,210,0.0,0.0,87,0.00,,,0.00,WeatherCatV1.13B119,2013-02-01 13:37:00,
2013-02-01 05:42:00,46.8,43.1,30.18,SSW,210,0.0,0.0,87,0.00,,,0.00,WeatherCatV1.13B119,2013-02-01 13:42:00,
2013-02-01 05:47:00,46.8,43.1,30.19,SSW,210,0.0,0.0,87,0.00,,,0.00,WeatherCatV1.13B119,2013-02-01 13:47:00,
2013-02-01 05:52:00,46.8,43.1,30.19,SSW,210,0.0,0.0,87,0.00,,,0.00,WeatherCatV1.13B119,2013-02-01 13:52:00,
2013-02-01 05:57:00,46.8,43.1,30.19,East,91,0.0,0.0,87,0.00,,,0.00,WeatherCatV1.13B119,2013-02-01 13:57:00,
2013-02-01 06:02:00,46.8,43.1,30.19,NE,49,0.0,0.0,87,0.00,,,0.00,WeatherCatV1.13B119,2013-02-01 14:02:00,
2013-02-01 06:07:00,46.7,43.0,30.19,NE,39,0.0,0.0,87,0.00,,,0.00,WeatherCatV1.13B119,2013-02-01 14:07:00,
2013-02-01 06:12:00,46.7,43.0,30.19,NE,38,0.0,0.0,87,0.00,,,0.00,WeatherCatV1.13B119,2013-02-01 14:12:00,
2013-02-01 06:17:00,46.7,43.0,30.19,ENE,68,0.0,0.0,87,0.00,,,0.00,WeatherCatV1.13B119,2013-02-01 14:17:00,
2013-02-01 06:22:00,46.7,43.3,30.19,ENE,67,0.0,0.0,88,0.00,,,0.00,WeatherCatV1.13B119,2013-02-01 14:22:00,
2013-02-01 06:27:00,46.7,43.3,30.19,NE,53,0.0,0.0,88,0.00,,,0.00,WeatherCatV1.13B119,2013-02-01 14:27:00,
2013-02-01 06:32:00,46.8,43.4,30.19,NE,42,0.0,0.0,88,0.00,,,0.00,WeatherCatV1.13B119,2013-02-01 14:32:00,
2013-02-01 06:37:00,46.8,43.4,30.19,NE,43,0.0,0.0,88,0.00,,,0.00,WeatherCatV1.13B119,2013-02-01 14:37:00,
2013-02-01 06:42:00,46.7,43.3,30.19,NE,43,0.0,0.0,88,0.00,,,0.00,WeatherCatV1.13B119,2013-02-01 14:42:00,
2013-02-01 06:47:00,46.6,43.2,30.19,NE,42,0.0,0.0,88,0.00,,,0.00,WeatherCatV1.13B119,2013-02-01 14:47:00,
2013-02-01 06:52:00,46.5,43.1,30.19,NE,43,0.0,0.0,88,0.00,,,0.00,WeatherCatV1.13B119,2013-02-01 14:52:00,
2013-02-01 06:57:00,46.4,43.0,30.19,NE,42,0.0,0.0,88,0.00,,,0.00,WeatherCatV1.13B119,2013-02-01 14:57:00,
2013-02-01 07:02:00,46.2,42.8,30.19,NNE,30,0.0,0.0,88,0.00,,,0.00,WeatherCatV1.13B119,2013-02-01 15:02:00,
2013-02-01 07:07:00,46.2,42.8,30.19,NNE,30,0.0,0.0,88,0.00,,,0.00,WeatherCatV1.13B119,2013-02-01 15:07:00,
2013-02-01 07:12:00,46.1,42.7,30.19,NNE,30,0.0,0.0,88,0.00,,,0.00,WeatherCatV1.13B119,2013-02-01 15:12:00,
2013-02-01 07:17:00,46.1,42.7,30.19,NNE,30,0.0,0.0,88,0.00,,,0.00,WeatherCatV1.13B119,2013-02-01 15:17:00,
2013-02-01 07:22:00,46.1,42.7,30.19,NNE,30,0.0,0.0,88,0.00,,,0.00,WeatherCatV1.13B119,2013-02-01 15:22:00,
2013-02-01 07:27:00,46.1,43.0,30.20,NE,37,0.0,1.0,89,0.00,,,0.00,WeatherCatV1.13B119,2013-02-01 15:27:00,
2013-02-01 07:32:00,46.2,43.1,30.20,NE,37,0.0,0.0,89,0.00,,,0.00,WeatherCatV1.13B119,2013-02-01 15:32:00,
2013-02-01 07:37:00,46.2,43.1,30.20,SW,222,0.0,0.0,89,0.00,,,0.00,WeatherCatV1.13B119,2013-02-01 15:37:00,
2013-02-01 07:42:00,46.2,43.1,30.20,WNW,288,0.0,1.0,89,0.00,,,0.00,WeatherCatV1.13B119,2013-02-01 15:42:00,
2013-02-01 07:47:00,46.2,43.1,30.20,NW,319,0.0,0.0,89,0.00,,,0.00,WeatherCatV1.13B119,2013-02-01 15:47:00,
2013-02-01 07:54:00,46.3,43.2,30.20,NNE,15,0.0,0.0,89,0.00,,,0.00,WeatherCatV1.13B119,2013-02-01 15:54:00,
2013-02-01 07:59:00,46.5,43.4,30.20,NNE,19,0.0,0.0,89,0.00,,,0.00,WeatherCatV1.13B119,2013-02-01 15:59:00,
2013-02-01 08:04:00,46.7,43.6,30.20,North,10,0.0,0.0,89,0.00,,,0.00,WeatherCatV1.13B119,2013-02-01 16:04:00,
2013-02-01 08:09:00,47.0,43.9,30.20,NNE,30,0.0,0.0,89,0.00,,,0.00,WeatherCatV1.13B119,2013-02-01 16:09:00,
2013-02-01 08:14:00,47.6,44.2,30.20,NE,34,0.0,0.0,88,0.00,,,0.00,WeatherCatV1.13B119,2013-02-01 16:14:00,
2013-02-01 08:19:00,48.1,44.7,30.20,NE,37,0.0,1.0,88,0.00,,,0.00,WeatherCatV1.13B119,2013-02-01 16:19:00,
2013-02-01 08:24:00,48.7,45.0,30.20,NE,35,0.0,1.0,87,0.00,,,0.00,WeatherCatV1.13B119,2013-02-01 16:24:00,
2013-02-01 08:29:00,49.2,45.2,30.20,NE,44,0.0,1.0,86,0.00,,,0.00,WeatherCatV1.13B119,2013-02-01 16:29:00,
2013-02-01 08:34:00,49.8,45.5,30.20,NE,39,1.0,1.0,85,0.00,,,0.00,WeatherCatV1.13B119,2013-02-01 16:34:00,
2013-02-01 08:39:00,50.5,46.2,30.20,NE,46,0.0,0.0,85,0.00,,,0.00,WeatherCatV1.13B119,2013-02-01 16:39:00,
2013-02-01 08:44:00,51.2,46.5,30.20,North,0,0.0,0.0,84,0.00,,,0.00,WeatherCatV1.13B119,2013-02-01 16:44:00,
2013-02-01 08:49:00,51.6,46.6,30.20,NNE,21,0.0,1.0,83,0.00,,,0.00,WeatherCatV1.13B119,2013-02-01 16:49:00,
2013-02-01 08:54:00,51.8,46.5,30.20,NE,42,0.0,0.0,82,0.00,,,0.00,WeatherCatV1.13B119,2013-02-01 16:54:00,
2013-02-01 08:59:00,52.1,46.8,30.20,NNE,12,0.0,0.0,82,0.00,,,0.00,WeatherCatV1.13B119,2013-02-01 16:59:00,
2013-02-01 09:04:00,52.5,47.2,30.20,WNW,286,0.0,0.0,82,0.00,,,0.00,WeatherCatV1.13B119,2013-02-01 17:04:00,
2013-02-01 09:09:00,52.9,47.2,30.20,SE,141,0.0,0.0,81,0.00,,,0.00,WeatherCatV1.13B119,2013-02-01 17:09:00,
2013-02-01 09:14:00,53.4,47.4,30.20,NE,39,0.0,2.0,80,0.00,,,0.00,WeatherCatV1.13B119,2013-02-01 17:14:00,
2013-02-01 09:19:00,54.0,48.0,30.20,NNW,347,0.0,0.0,80,0.00,,,0.00,WeatherCatV1.13B119,2013-02-01 17:19:00,
2013-02-01 09:24:00,54.3,47.2,30.20,SW,226,0.0,2.0,77,0.00,,,0.00,WeatherCatV1.13B119,2013-02-01 17:24:00,
2013-02-01 09:29:00,54.6,47.9,30.20,NE,49,0.0,0.0,78,0.00,,,0.00,WeatherCatV1.13B119,2013-02-01 17:29:00,
2013-02-01 09:34:00,54.5,47.4,30.20,NE,50,1.0,1.0,77,0.00,,,0.00,WeatherCatV1.13B119,2013-02-01 17:34:00,
2013-02-01 09:39:00,54.7,48.0,30.20,WSW,245,0.0,1.0,78,0.00,,,0.00,WeatherCatV1.13B119,2013-02-01 17:39:00,
2013-02-01 09:44:00,55.2,47.8,30.20,NNE,18,1.0,2.0,76,0.00,,,0.00,WeatherCatV1.13B119,2013-02-01 17:44:00,
2013-02-01 09:49:00,55.1,47.7,30.20,North,8,0.0,2.0,76,0.00,,,0.00,WeatherCatV1.13B119,2013-02-01 17:49:00,
2013-02-01 09:54:00,55.2,47.8,30.21,SSE,159,0.0,1.0,76,0.00,,,0.00,WeatherCatV1.13B119,2013-02-01 17:54:00,
2013-02-01 09:59:00,55.5,47.7,30.20,NNE,33,0.0,1.0,75,0.00,,,0.00,WeatherCatV1.13B119,2013-02-01 17:59:00,
2013-02-01 10:04:00,55.6,47.8,30.21,NNE,25,0.0,2.0,75,0.00,,,0.00,WeatherCatV1.13B119,2013-02-01 18:04:00,
2013-02-01 10:09:00,55.7,47.9,30.21,NE,47,0.0,5.0,75,0.00,,,0.00,WeatherCatV1.13B119,2013-02-01 18:09:00,
2013-02-01 10:14:00,55.6,47.8,30.21,NE,39,1.0,2.0,75,0.00,,,0.00,WeatherCatV1.13B119,2013-02-01 18:14:00,
2013-02-01 10:19:00,55.6,47.8,30.21,NE,49,2.0,2.0,75,0.00,,,0.00,WeatherCatV1.13B119,2013-02-01 18:19:00,
2013-02-01 10:24:00,56.0,48.5,30.21,East,99,0.0,1.0,76,0.00,,,0.00,WeatherCatV1.13B119,2013-02-01 18:24:00,
2013-02-01 10:29:00,56.4,48.2,30.21,NE,42,0.0,0.0,74,0.00,,,0.00,WeatherCatV1.13B119,2013-02-01 18:29:00,
2013-02-01 10:34:00,57.4,49.2,30.21,NE,48,1.0,1.0,74,0.00,,,0.00,WeatherCatV1.13B119,2013-02-01 18:34:00,
2013-02-01 10:39:00,57.5,48.5,30.20,NE,48,0.0,1.0,72,0.00,,,0.00,WeatherCatV1.13B119,2013-02-01 18:39:00,
2013-02-01 10:44:00,57.7,48.7,30.20,NE,44,1.0,3.0,72,0.00,,,0.00,WeatherCatV1.13B119,2013-02-01 18:44:00,
2013-02-01 10:49:00,57.4,48.4,30.20,NE,49,1.0,2.0,72,0.00,,,0.00,WeatherCatV1.13B119,2013-02-01 18:49:00,
2013-02-01 10:54:00,57.6,48.6,30.20,NE,47,1.0,2.0,72,0.00,,,0.00,WeatherCatV1.13B119,2013-02-01 18:54:00,
2013-02-01 10:59:00,57.9,48.9,30.21,NE,47,1.0,1.0,72,0.00,,,0.00,WeatherCatV1.13B119,2013-02-01 18:59:00,
2013-02-01 11:04:00,58.6,49.2,30.21,NE,47,0.0,1.0,71,0.00,,,0.00,WeatherCatV1.13B119,2013-02-01 19:04:00,
2013-02-01 11:09:00,59.5,50.1,30.21,NW,319,0.0,0.0,71,0.00,,,0.00,WeatherCatV1.13B119,2013-02-01 19:09:00,
2013-02-01 11:14:00,60.5,49.9,30.21,NE,46,1.0,1.0,68,0.00,,,0.00,WeatherCatV1.13B119,2013-02-01 19:14:00,
2013-02-01 11:19:00,60.9,49.9,30.20,NE,41,0.0,1.0,67,0.00,,,0.00,WeatherCatV1.13B119,2013-02-01 19:19:00,
2013-02-01 11:24:00,61.4,50.7,30.20,North,5,0.0,0.0,68,0.00,,,0.00,WeatherCatV1.13B119,2013-02-01 19:24:00,
2013-02-01 11:29:00,61.8,50.3,30.20,WNW,295,0.0,0.0,66,0.00,,,0.00,WeatherCatV1.13B119,2013-02-01 19:29:00,
2013-02-01 11:34:00,62.3,49.5,30.19,NE,41,0.0,1.0,63,0.00,,,0.00,WeatherCatV1.13B119,2013-02-01 19:34:00,
2013-02-01 11:39:00,62.2,49.0,30.19,NE,34,0.0,1.0,62,0.00,,,0.00,WeatherCatV1.13B119,2013-02-01 19:39:00,
2013-02-01 11:44:00,62.4,50.1,30.19,North,11,0.0,1.0,64,0.00,,,0.00,WeatherCatV1.13B119,2013-02-01 19:44:00,
2013-02-01 11:49:00,62.9,49.2,30.19,NNE,31,0.0,1.0,61,0.00,,,0.00,WeatherCatV1.13B119,2013-02-01 19:49:00,
2013-02-01 11:54:00,63.2,50.4,30.19,SW,222,0.0,0.0,63,0.00,,,0.00,WeatherCatV1.13B119,2013-02-01 19:54:00,
2013-02-01 11:59:00,64.1,49.9,30.18,SW,222,0.0,0.0,60,0.00,,,0.00,WeatherCatV1.13B119,2013-02-01 19:59:00,
2013-02-01 12:04:00,64.5,51.2,30.18,SW,226,0.0,0.0,62,0.00,,,0.00,WeatherCatV1.13B119,2013-02-01 20:04:00,
2013-02-01 12:09:00,64.4,49.8,30.17,North,8,0.0,0.0,59,0.00,,,0.00,WeatherCatV1.13B119,2013-02-01 20:09:00,
2013-02-01 12:14:00,64.6,50.4,30.17,NE,35,0.0,2.0,60,0.00,,,0.00,WeatherCatV1.13B119,2013-02-01 20:14:00,
2013-02-01 12:19:00,63.9,50.2,30.16,SW,225,0.0,1.0,61,0.00,,,0.00,WeatherCatV1.13B119,2013-02-01 20:19:00,
2013-02-01 12:24:00,63.8,50.1,30.16,NNE,29,0.0,0.0,61,0.00,,,0.00,WeatherCatV1.13B119,2013-02-01 20:24:00,
2013-02-01 12:29:00,63.7,50.4,30.16,ENE,63,1.0,2.0,62,0.00,,,0.00,WeatherCatV1.13B119,2013-02-01 20:29:00,
2013-02-01 12:34:00,63.7,49.5,30.16,NNW,347,1.0,2.0,60,0.00,,,0.00,WeatherCatV1.13B119,2013-02-01 20:34:00,
2013-02-01 12:39:00,63.7,49.5,30.16,SSW,211,1.0,1.0,60,0.00,,,0.00,WeatherCatV1.13B119,2013-02-01 20:39:00,
2013-02-01 12:44:00,63.8,51.0,30.16,South,191,1.0,1.0,63,0.00,,,0.00,WeatherCatV1.13B119,2013-02-01 20:44:00,
2013-02-01 12:49:00,63.4,49.3,30.15,ESE,113,0.0,2.0,60,0.00,,,0.00,WeatherCatV1.13B119,2013-02-01 20:49:00,
2013-02-01 12:54:00,63.2,49.1,30.15,NW,318,0.0,1.0,60,0.00,,,0.00,WeatherCatV1.13B119,2013-02-01 20:54:00,
2013-02-01 12:59:00,63.4,49.7,30.15,SSW,204,0.0,2.0,61,0.00,,,0.00,WeatherCatV1.13B119,2013-02-01 20:59:00,
2013-02-01 13:04:00,64.0,49.4,30.15,NE,46,0.0,0.0,59,0.00,,,0.00,WeatherCatV1.13B119,2013-02-01 21:04:00,
2013-02-01 13:09:00,64.7,50.0,30.15,NNE,31,0.0,0.0,59,0.00,,,0.00,WeatherCatV1.13B119,2013-02-01 21:09:00,
2013-02-01 13:14:00,65.2,49.6,30.15,ENE,59,0.0,0.0,57,0.00,,,0.00,WeatherCatV1.13B119,2013-02-01 21:14:00,
2013-02-01 13:19:00,65.2,50.0,30.15,SW,236,1.0,1.0,58,0.00,,,0.00,WeatherCatV1.13B119,2013-02-01 21:19:00,
2013-02-01 13:24:00,65.8,49.2,30.14,South,190,0.0,0.0,55,0.00,,,0.00,WeatherCatV1.13B119,2013-02-01 21:24:00,
2013-02-01 13:29:00,65.7,50.0,30.14,SW,224,0.0,0.0,57,0.00,,,0.00,WeatherCatV1.13B119,2013-02-01 21:29:00,
2013-02-01 13:34:00,65.7,50.5,30.14,WNW,301,0.0,1.0,58,0.00,,,0.00,WeatherCatV1.13B119,2013-02-01 21:34:00,
2013-02-01 13:39:00,65.9,49.3,30.13,SSW,208,0.0,0.0,55,0.00,,,0.00,WeatherCatV1.13B119,2013-02-01 21:39:00,
2013-02-01 13:44:00,65.6,49.0,30.13,ENE,65,0.0,0.0,55,0.00,,,0.00,WeatherCatV1.13B119,2013-02-01 21:44:00,
2013-02-01 13:49:00,65.7,49.6,30.13,NW,317,0.0,0.0,56,0.00,,,0.00,WeatherCatV1.13B119,2013-02-01 21:49:00,
2013-02-01 13:54:00,65.8,49.2,30.14,SSW,195,0.0,0.0,55,0.00,,,0.00,WeatherCatV1.13B119,2013-02-01 21:54:00,
2013-02-01 13:59:00,65.9,49.8,30.13,North,5,0.0,0.0,56,0.00,,,0.00,WeatherCatV1.13B119,2013-02-01 21:59:00,
2013-02-01 14:04:00,65.1,49.0,30.14,NE,41,2.0,2.0,56,0.00,,,0.00,WeatherCatV1.13B119,2013-02-01 22:04:00,
2013-02-01 14:09:00,64.4,48.4,30.13,SE,139,0.0,1.0,56,0.00,,,0.00,WeatherCatV1.13B119,2013-02-01 22:09:00,
2013-02-01 14:14:00,63.7,48.2,30.13,NNE,27,0.0,2.0,57,0.00,,,0.00,WeatherCatV1.13B119,2013-02-01 22:14:00,
2013-02-01 14:19:00,63.4,48.8,30.13,NNE,28,0.0,2.0,59,0.00,,,0.00,WeatherCatV1.13B119,2013-02-01 22:19:00,
2013-02-01 14:24:00,63.4,49.3,30.13,North,4,0.0,2.0,60,0.00,,,0.00,WeatherCatV1.13B119,2013-02-01 22:24:00,
2013-02-01 14:29:00,63.4,48.8,30.14,NE,41,0.0,2.0,59,0.00,,,0.00,WeatherCatV1.13B119,2013-02-01 22:29:00,
2013-02-01 14:34:00,63.2,49.1,30.14,NNE,28,0.0,1.0,60,0.00,,,0.00,WeatherCatV1.13B119,2013-02-01 22:34:00,
2013-02-01 14:39:00,63.2,49.1,30.13,NNE,21,0.0,1.0,60,0.00,,,0.00,WeatherCatV1.13B119,2013-02-01 22:39:00,
2013-02-01 14:44:00,63.5,49.4,30.13,NE,49,1.0,1.0,60,0.00,,,0.00,WeatherCatV1.13B119,2013-02-01 22:44:00,
2013-02-01 14:49:00,63.9,49.3,30.13,NW,318,0.0,0.0,59,0.00,,,0.00,WeatherCatV1.13B119,2013-02-01 22:49:00,
2013-02-01 14:54:00,64.2,49.6,30.13,NE,41,0.0,1.0,59,0.00,,,0.00,WeatherCatV1.13B119,2013-02-01 22:54:00,
2013-02-01 14:59:00,63.8,48.3,30.13,NNE,29,0.0,2.0,57,0.00,,,0.00,WeatherCatV1.13B119,2013-02-01 22:59:00,
2013-02-01 15:04:00,63.4,48.4,30.13,NNE,29,0.0,1.0,58,0.00,,,0.00,WeatherCatV1.13B119,2013-02-01 23:04:00,
2013-02-01 15:09:00,63.5,48.5,30.13,NNE,28,0.0,0.0,58,0.00,,,0.00,WeatherCatV1.13B119,2013-02-01 23:09:00,
2013-02-01 15:14:00,63.4,48.4,30.13,NNE,21,0.0,2.0,58,0.00,,,0.00,WeatherCatV1.13B119,2013-02-01 23:14:00,
2013-02-01 15:19:00,64.3,50.1,30.13,NNE,22,0.0,0.0,60,0.00,,,0.00,WeatherCatV1.13B119,2013-02-01 23:19:00,
2013-02-01 15:24:00,65.0,49.4,30.13,NE,42,0.0,0.0,57,0.00,,,0.00,WeatherCatV1.13B119,2013-02-01 23:24:00,
2013-02-01 15:29:00,64.0,48.5,30.13,NE,48,0.0,0.0,57,0.00,,,0.00,WeatherCatV1.13B119,2013-02-01 23:29:00,
2013-02-01 15:34:00,63.6,48.5,30.13,NNE,25,0.0,0.0,58,0.00,,,0.00,WeatherCatV1.13B119,2013-02-01 23:34:00,
2013-02-01 15:39:00,63.8,49.2,30.14,NNE,24,0.0,0.0,59,0.00,,,0.00,WeatherCatV1.13B119,2013-02-01 23:39:00,
2013-02-01 15:44:00,64.5,48.4,30.13,NNE,19,0.0,0.0,56,0.00,,,0.00,WeatherCatV1.13B119,2013-02-01 23:44:00,
2013-02-01 15:49:00,64.6,48.5,30.13,NNE,18,0.0,0.0,56,0.00,,,0.00,WeatherCatV1.13B119,2013-02-01 23:49:00,
2013-02-01 15:54:00,64.6,49.5,30.13,West,259,0.0,0.0,58,0.00,,,0.00,WeatherCatV1.13B119,2013-02-01 23:54:00,
2013-02-01 15:59:00,64.7,49.6,30.12,West,259,0.0,0.0,58,0.00,,,0.00,WeatherCatV1.13B119,2013-02-01 23:59:00,
2013-02-01 16:04:00,64.8,49.7,30.12,SSW,205,0.0,0.0,58,0.00,,,0.00,WeatherCatV1.13B119,2013-02-02 00:04:00,
2013-02-01 16:09:00,63.7,48.2,30.12,NE,55,0.0,0.0,57,0.00,,,0.00,WeatherCatV1.13B119,2013-02-02 00:09:00,
2013-02-01 16:14:00,62.3,47.8,30.12,NE,51,0.0,0.0,59,0.00,,,0.00,WeatherCatV1.13B119,2013-02-02 00:14:00,
2013-02-01 16:19:00,61.6,48.4,30.12,NE,51,0.0,0.0,62,0.00,,,0.00,WeatherCatV1.13B119,2013-02-02 00:19:00,
2013-02-01 16:24:00,61.2,48.5,30.12,NE,51,0.0,0.0,63,0.00,,,0.00,WeatherCatV1.13B119,2013-02-02 00:24:00,
2013-02-01 16:29:00,61.1,48.4,30.13,NE,53,0.0,0.0,63,0.00,,,0.00,WeatherCatV1.13B119,2013-02-02 00:29:00,
2013-02-01 16:34:00,60.9,48.2,30.13,NE,52,0.0,0.0,63,0.00,,,0.00,WeatherCatV1.13B119,2013-02-02 00:34:00,
2013-02-01 16:39:00,60.9,48.2,30.13,NE,51,0.0,0.0,63,0.00,,,0.00,WeatherCatV1.13B119,2013-02-02 00:39:00,
2013-02-01 16:44:00,60.8,48.5,30.13,NE,51,0.0,0.0,64,0.00,,,0.00,WeatherCatV1.13B119,2013-02-02 00:44:00,
2013-02-01 16:49:00,60.9,49.1,30.13,NE,51,0.0,0.0,65,0.00,,,0.00,WeatherCatV1.13B119,2013-02-02 00:49:00,
2013-02-01 16:54:00,60.7,48.9,30.13,NE,51,0.0,0.0,65,0.00,,,0.00,WeatherCatV1.13B119,2013-02-02 00:54:00,
2013-02-01 16:59:00,60.3,48.5,30.14,NE,51,0.0,0.0,65,0.00,,,0.00,WeatherCatV1.13B119,2013-02-02 00:59:00,
2013-02-01 17:04:00,60.3,48.5,30.14,NE,51,0.0,0.0,65,0.00,,,0.00,WeatherCatV1.13B119,2013-02-02 01:04:00,
2013-02-01 17:09:00,60.2,48.0,30.14,NE,51,0.0,0.0,64,0.00,,,0.00,WeatherCatV1.13B119,2013-02-02 01:09:00,
2013-02-01 17:14:00,60.0,48.2,30.14,NE,51,0.0,0.0,65,0.00,,,0.00,WeatherCatV1.13B119,2013-02-02 01:14:00,
2013-02-01 17:19:00,59.7,47.9,30.14,NE,51,0.0,0.0,65,0.00,,,0.00,WeatherCatV1.13B119,2013-02-02 01:19:00,
2013-02-01 17:24:00,59.4,48.0,30.14,NE,51,0.0,0.0,66,0.00,,,0.00,WeatherCatV1.13B119,2013-02-02 01:24:00,
2013-02-01 17:29:00,59.1,47.8,30.15,NE,51,0.0,0.0,66,0.00,,,0.00,WeatherCatV1.13B119,2013-02-02 01:29:00,
2013-02-01 17:34:00,58.8,47.9,30.15,NE,51,0.0,0.0,67,0.00,,,0.00,WeatherCatV1.13B119,2013-02-02 01:34:00,
2013-02-01 17:39:00,58.6,47.7,30.15,NE,51,0.0,0.0,67,0.00,,,0.00,WeatherCatV1.13B119,2013-02-02 01:39:00,
2013-02-01 17:44:00,58.7,47.8,30.16,WSW,243,4.0,4.0,67,0.00,,,0.00,WeatherCatV1.13B119,2013-02-02 01:44:00,
2013-02-01 17:49:00,58.5,48.0,30.16,WSW,243,2.0,3.0,68,0.00,,,0.00,WeatherCatV1.13B119,2013-02-02 01:49:00,
2013-02-01 17:54:00,58.0,48.3,30.16,West,260,3.0,5.0,70,0.00,,,0.00,WeatherCatV1.13B119,2013-02-02 01:54:00,
2013-02-01 17:59:00,57.3,48.0,30.16,SW,236,3.0,4.0,71,0.00,,,0.00,WeatherCatV1.13B119,2013-02-02 01:59:00,
2013-02-01 18:04:00,56.6,47.7,30.16,WSW,252,3.0,3.0,72,0.00,,,0.00,WeatherCatV1.13B119,2013-02-02 02:04:00,
2013-02-01 18:09:00,56.2,47.3,30.17,WSW,250,1.0,2.0,72,0.00,,,0.00,WeatherCatV1.13B119,2013-02-02 02:09:00,
2013-02-01 18:14:00,56.0,47.5,30.17,SW,224,2.0,2.0,73,0.00,,,0.00,WeatherCatV1.13B119,2013-02-02 02:14:00,
2013-02-01 18:19:00,55.7,47.2,30.17,WSW,245,0.0,1.0,73,0.00,,,0.00,WeatherCatV1.13B119,2013-02-02 02:19:00,
2013-02-01 18:24:00,55.5,47.0,30.17,WSW,240,0.0,0.0,73,0.00,,,0.00,WeatherCatV1.13B119,2013-02-02 02:24:00,
2013-02-01 18:29:00,55.4,46.9,30.17,WSW,254,0.0,0.0,73,0.00,,,0.00,WeatherCatV1.13B119,2013-02-02 02:29:00,
2013-02-01 18:34:00,55.3,46.4,30.17,WSW,240,0.0,1.0,72,0.00,,,0.00,WeatherCatV1.13B119,2013-02-02 02:34:00,
2013-02-01 18:39:00,55.7,46.8,30.17,SW,225,1.0,2.0,72,0.00,,,0.00,WeatherCatV1.13B119,2013-02-02 02:39:00,
2013-02-01 18:45:00,55.5,46.6,30.17,WSW,243,0.0,0.0,72,0.00,,,0.00,WeatherCatV1.13B119,2013-02-02 02:45:00,
2013-02-01 18:50:00,55.3,46.8,30.17,SW,228,0.0,2.0,73,0.00,,,0.00,WeatherCatV1.13B119,2013-02-02 02:50:00,
2013-02-01 18:55:00,54.8,46.7,30.17,WSW,240,0.0,1.0,74,0.00,,,0.00,WeatherCatV1.13B119,2013-02-02 02:55:00,
2013-02-01 19:00:00,54.5,46.7,30.18,WSW,238,1.0,3.0,75,0.00,,,0.00,WeatherCatV1.13B119,2013-02-02 03:00:00,
2013-02-01 19:05:00,54.2,46.4,30.18,WSW,250,0.0,3.0,75,0.00,,,0.00,WeatherCatV1.13B119,2013-02-02 03:05:00,
2013-02-01 19:10:00,53.8,46.4,30.18,WNW,283,1.0,2.0,76,0.00,,,0.00,WeatherCatV1.13B119,2013-02-02 03:10:00,
2013-02-01 19:15:00,53.6,46.6,30.18,WSW,252,0.0,1.0,77,0.00,,,0.00,WeatherCatV1.13B119,2013-02-02 03:15:00,
2013-02-01 19:20:00,53.5,46.5,30.18,SW,231,0.0,1.0,77,0.00,,,0.00,WeatherCatV1.13B119,2013-02-02 03:20:00,
2013-02-01 19:25:00,53.4,46.4,30.18,WSW,243,0.0,1.0,77,0.00,,,0.00,WeatherCatV1.13B119,2013-02-02 03:25:00,
2013-02-01 19:30:00,53.5,46.1,30.18,SW,231,0.0,0.0,76,0.00,,,0.00,WeatherCatV1.13B119,2013-02-02 03:30:00,
2013-02-01 19:35:00,53.7,46.3,30.18,SW,231,0.0,0.0,76,0.00,,,0.00,WeatherCatV1.13B119,2013-02-02 03:35:00,
2013-02-01 19:40:00,53.7,46.3,30.18,SW,231,0.0,0.0,76,0.00,,,0.00,WeatherCatV1.13B119,2013-02-02 03:40:00,
2013-02-01 19:45:00,53.7,46.0,30.18,SW,231,0.0,0.0,75,0.00,,,0.00,WeatherCatV1.13B119,2013-02-02 03:45:00,
2013-02-01 19:50:00,54.1,46.0,30.18,SW,230,0.0,0.0,74,0.00,,,0.00,WeatherCatV1.13B119,2013-02-02 03:50:00,
2013-02-01 19:55:00,55.0,46.5,30.18,SW,231,0.0,0.0,73,0.00,,,0.00,WeatherCatV1.13B119,2013-02-02 03:55:00,
2013-02-01 20:00:00,55.8,46.5,30.17,SW,233,0.0,0.0,71,0.00,,,0.00,WeatherCatV1.13B119,2013-02-02 04:00:00,
2013-02-01 20:05:00,56.3,46.6,30.18,SW,233,0.0,0.0,70,0.00,,,0.00,WeatherCatV1.13B119,2013-02-02 04:05:00,
2013-02-01 20:10:00,56.4,46.7,30.18,SW,233,0.0,0.0,70,0.00,,,0.00,WeatherCatV1.13B119,2013-02-02 04:10:00,
2013-02-01 20:15:00,56.4,46.4,30.18,SW,233,0.0,0.0,69,0.00,,,0.00,WeatherCatV1.13B119,2013-02-02 04:15:00,
2013-02-01 20:20:00,56.3,46.6,30.18,SW,233,0.0,0.0,70,0.00,,,0.00,WeatherCatV1.13B119,2013-02-02 04:20:00,
2013-02-01 20:25:00,56.1,46.5,30.18,SW,233,0.0,0.0,70,0.00,,,0.00,WeatherCatV1.13B119,2013-02-02 04:25:00,
2013-02-01 20:30:00,56.4,46.4,30.18,SW,233,0.0,0.0,69,0.00,,,0.00,WeatherCatV1.13B119,2013-02-02 04:30:00,
2013-02-01 20:35:00,56.8,46.0,30.18,SW,233,0.0,0.0,67,0.00,,,0.00,WeatherCatV1.13B119,2013-02-02 04:35:00,
2013-02-01 20:40:00,56.9,45.7,30.18,SW,233,0.0,0.0,66,0.00,,,0.00,WeatherCatV1.13B119,2013-02-02 04:40:00,
2013-02-01 20:45:00,57.1,45.8,30.19,NE,51,1.0,1.0,66,0.00,,,0.00,WeatherCatV1.13B119,2013-02-02 04:45:00,
2013-02-01 20:50:00,57.2,45.5,30.19,NE,53,0.0,1.0,65,0.00,,,0.00,WeatherCatV1.13B119,2013-02-02 04:50:00,
2013-02-01 20:55:00,57.2,45.5,30.19,NE,51,0.0,0.0,65,0.00,,,0.00,WeatherCatV1.13B119,2013-02-02 04:55:00,
2013-02-01 21:00:00,57.0,45.8,30.19,NE,51,0.0,0.0,66,0.00,,,0.00,WeatherCatV1.13B119,2013-02-02 05:00:00,
2013-02-01 21:01:00,57.0,45.8,30.19,NE,53,0.0,0.0,66,0.00,,,0.00,WeatherCatV1.13B119,2013-02-02 05:01:00,
2013-02-01 21:06:00,56.5,45.7,30.19,NE,51,0.0,0.0,67,0.00,,,0.00,WeatherCatV1.13B119,2013-02-02 05:06:00,
2013-02-01 21:11:00,56.0,45.6,30.19,NE,51,0.0,0.0,68,0.00,,,0.00,WeatherCatV1.13B119,2013-02-02 05:11:00,
2013-02-01 21:16:00,55.9,45.9,30.20,NNE,23,0.0,0.0,69,0.00,,,0.00,WeatherCatV1.13B119,2013-02-02 05:16:00,
2013-02-01 21:21:00,55.6,45.6,30.20,NNE,23,0.0,0.0,69,0.00,,,0.00,WeatherCatV1.13B119,2013-02-02 05:21:00,
2013-02-01 21:26:00,55.1,45.1,30.20,NNE,23,0.0,0.0,69,0.00,,,0.00,WeatherCatV1.13B119,2013-02-02 05:26:00,
2013-02-01 21:31:00,54.8,45.2,30.20,NNE,23,0.0,0.0,70,0.00,,,0.00,WeatherCatV1.13B119,2013-02-02 05:31:00,
2013-02-01 21:36:00,54.5,45.3,30.20,NNE,23,0.0,0.0,71,0.00,,,0.00,WeatherCatV1.13B119,2013-02-02 05:36:00,
2013-02-01 21:41:00,54.3,45.1,30.20,NNE,23,0.0,0.0,71,0.00,,,0.00,WeatherCatV1.13B119,2013-02-02 05:41:00,
2013-02-01 21:46:00,54.3,45.1,30.19,NNE,23,0.0,0.0,71,0.00,,,0.00,WeatherCatV1.13B119,2013-02-02 05:46:00,
2013-02-01 21:51:00,54.3,45.1,30.20,NNE,23,0.0,0.0,71,0.00,,,0.00,WeatherCatV1.13B119,2013-02-02 05:51:00,
2013-02-01 21:56:00,54.3,45.1,30.20,NNE,23,0.0,0.0,71,0.00,,,0.00,WeatherCatV1.13B119,2013-02-02 05:56:00,
2013-02-01 22:01:00,54.2,45.0,30.20,NNE,23,0.0,0.0,71,0.00,,,0.00,WeatherCatV1.13B119,2013-02-02 06:01:00,
2013-02-01 22:04:00,54.1,44.9,30.20,NNE,23,0.0,0.0,71,0.00,,,0.00,WeatherCatV1.13B119,2013-02-02 06:04:00,
2013-02-01 22:09:00,54.2,45.0,30.20,NNE,23,0.0,0.0,71,0.00,,,0.00,WeatherCatV1.13B119,2013-02-02 06:09:00,
2013-02-01 22:14:00,54.7,45.1,30.20,NNE,23,0.0,0.0,70,0.00,,,0.00,WeatherCatV1.13B119,2013-02-02 06:14:00,
2013-02-01 22:19:00,54.9,45.3,30.20,NNE,23,0.0,0.0,70,0.00,,,0.00,WeatherCatV1.13B119,2013-02-02 06:19:00,
2013-02-01 22:24:00,54.7,45.1,30.20,NNE,23,0.0,0.0,70,0.00,,,0.00,WeatherCatV1.13B119,2013-02-02 06:24:00,
2013-02-01 22:29:00,54.4,44.8,30.21,NNE,23,0.0,0.0,70,0.00,,,0.00,WeatherCatV1.13B119,2013-02-02 06:29:00,
2013-02-01 22:34:00,54.2,45.0,30.21,NNE,28,0.0,0.0,71,0.00,,,0.00,WeatherCatV1.13B119,2013-02-02 06:34:00,
2013-02-01 22:39:00,54.2,45.4,30.21,NE,37,0.0,0.0,72,0.00,,,0.00,WeatherCatV1.13B119,2013-02-02 06:39:00,
2013-02-01 22:44:00,54.4,45.2,30.21,NE,37,0.0,0.0,71,0.00,,,0.00,WeatherCatV1.13B119,2013-02-02 06:44:00,
2013-02-01 22:49:00,54.1,45.3,30.21,NE,37,0.0,0.0,72,0.00,,,0.00,WeatherCatV1.13B119,2013-02-02 06:49:00,
2013-02-01 22:54:00,53.6,45.2,30.21,NE,37,0.0,0.0,73,0.00,,,0.00,WeatherCatV1.13B119,2013-02-02 06:54:00,
2013-02-01 22:59:00,53.6,45.2,30.21,NE,37,0.0,0.0,73,0.00,,,0.00,WeatherCatV1.13B119,2013-02-02 06:59:00,
2013-02-01 23:04:00,53.3,45.2,30.21,NE,37,0.0,0.0,74,0.00,,,0.00,WeatherCatV1.13B119,2013-02-02 07:04:00,
2013-02-01 23:09:00,52.8,45.1,30.21,NE,37,0.0,0.0,75,0.00,,,0.00,WeatherCatV1.13B119,2013-02-02 07:09:00,
2013-02-01 23:14:00,52.4,45.1,30.22,NE,37,0.0,0.0,76,0.00,,,0.00,WeatherCatV1.13B119,2013-02-02 07:14:00,
2013-02-01 23:19:00,52.0,45.0,30.21,NE,37,0.0,0.0,77,0.00,,,0.00,WeatherCatV1.13B119,2013-02-02 07:19:00,
2013-02-01 23:24:00,51.8,45.2,30.21,NE,37,0.0,0.0,78,0.00,,,0.00,WeatherCatV1.13B119,2013-02-02 07:24:00,
2013-02-01 23:29:00,51.6,45.3,30.22,WSW,245,1.0,2.0,79,0.00,,,0.00,WeatherCatV1.13B119,2013-02-02 07:29:00,
2013-02-01 23:34:00,50.7,45.1,30.22,WSW,239,0.0,2.0,81,0.00,,,0.00,WeatherCatV1.13B119,2013-02-02 07:34:00,
2013-02-01 23:39:00,49.9,44.9,30.22,WSW,253,0.0,1.0,83,0.00,,,0.00,WeatherCatV1.13B119,2013-02-02 07:39:00,
2013-02-01 23:44:00,49.4,44.8,30.22,WSW,238,2.0,4.0,84,0.00,,,0.00,WeatherCatV1.13B119,2013-02-02 07:44:00,
2013-02-01 23:49:00,48.8,44.5,30.22,West,259,3.0,4.0,85,0.00,,,0.00,WeatherCatV1.13B119,2013-02-02 07:49:00,
2013-02-01 23:54:00,48.2,44.5,30.22,WSW,249,2.0,2.0,87,0.00,,,0.00,WeatherCatV1.13B119,2013-02-02 07:54:00,
2013-02-01 23:59:00,47.9,44.5,30.22,WSW,255,2.0,6.0,88,0.00,,,0.00,WeatherCatV1.13B119,2013-02-02 07:59:00,